Airfield :
LOGIN :

Register | Disclaimer

   EN    FR    IT 

 










Legend :    VFR   Marginal VFR   IFR   Intensive IFR   Very Intensive IFR
Visi :
Ceiling :
>= 8 km
>= 3000ft
5 to 8 km
1000 to 3000 ft
1500m to 5 km
500 to 1000 ft
800 to 1500m
200 to 500 ft
< 800m
< 200 ft
Symbols :   Thunderstorms  Fog  Heavy snow  Heavy precipitations  Wind > 20 kt
SIGMETs :     Misc.  Thunderstorms  Icing  Turbulence  Mountain Waves  Volcanic Ashes






- Airport Elevation : 466 ft


LHPA - Pápa

CURRENT METAR :
  • 300715Z 35019G29KT 320V020 9999 FEW030 SCT057 BKN083 03/M06 Q1021 NOSIG RMK BLU

EXPIRED METARs :
  • 300645Z 36019KT 9999 FEW030 SCT057 BKN083 03/M05 Q1021 NOSIG RMK BLU
  • 300615Z 35019KT 9999 FEW030 SCT057 BKN083 02/M05 Q1020 NOSIG RMK BLU
  • 300545Z 36019G29KT 9999 FEW030 SCT057 BKN083 02/M05 Q1020 NOSIG RMK BLU
  • 300515Z 35019KT 9999 FEW030 SCT057 BKN083 02/M05 Q1020 NOSIG RMK BLU
  • 300445Z 35016G25KT 9999 FEW030 SCT060 BKN083 03/M04 Q1020 NOSIG RMK BLU

TAF TAF LHPA
Valid from the 30 at 06:00 until the 31 at 06:00 UTC


300515Z 3006/3106 35016G28KT CAVOK
PROB40
TEMPO 3006/3010 -RA -SHRASN SCT030 BKN083
BECMG 3014/3017 01010KT
BECMG 3022/3101 02005KT
TEMPO 3101/3106 VRB03KT



MET'MAP, your aeronautical weather chart ! - Copyright ORBIFLY December 2007 - Disclaimer

ORBIFLY MET'MAP TEAM :

Programming & Development : Alexandra Zaïnal
Concept & original design : Baudouin d'Aumeries
Assistance for programming : Marc-Olivier Méhu
Technical & hardware support : Manuel Goepfert

Contact : metmap@orbifly.com




SOURCES & CREDITS :

   NOAA